Reno, Nevada
Current Conditions -  °F | °C
As of 3:55 PM on Wednesday 22 Oct 2014 (Local Time) from KRNO Reporting Station
Overcast Overcast  
Wind Chill: 69°   Ceiling: 25000
Heat Index: 69°   Visibility: 10mi
Dew Point: 28°   Wind: 0mph
Humidity: 22%   Direction: NA
Pressure: 30.05"   Gusts: NA
Location:  39.52°N, 119.81°W
Report Text: KRNO 222255Z 00000KT 10SM SCT170 SCT220 OVC250 21/M02 A3005 RMK AO2 SLP149 ACSL DSNT ALQDS T02061022
Loading
Personal Weather Stations






























Interactive Weather Map
Tropical Storm Tracking
New forecast layout! Learn more

10-Day Weather Forecast

Advertisements
Track Severe Weather on mobile